sensor_id;sensor_type;location;lat;lon;timestamp;P1;durP1;ratioP1;P2;durP2;ratioP2
3083;SDS011;1552;51.952;7.618;2023-12-20T00:01:59;3.47;;;2.20;;
3083;SDS011;1552;51.952;7.618;2023-12-20T00:04:25;4.30;;;2.53;;
3083;SDS011;1552;51.952;7.618;2023-12-20T00:06:51;5.20;;;2.43;;
3083;SDS011;1552;51.952;7.618;2023-12-20T00:09:17;5.53;;;2.97;;
3083;SDS011;1552;51.952;7.618;2023-12-20T00:11:44;7.27;;;3.20;;
3083;SDS011;1552;51.952;7.618;2023-12-20T00:14:11;5.40;;;2.80;;
3083;SDS011;1552;51.952;7.618;2023-12-20T00:16:37;4.20;;;3.00;;
3083;SDS011;1552;51.952;7.618;2023-12-20T00:19:05;8.83;;;3.40;;
3083;SDS011;1552;51.952;7.618;2023-12-20T00:21:32;7.43;;;3.70;;
3083;SDS011;1552;51.952;7.618;2023-12-20T00:23:58;6.57;;;3.57;;
3083;SDS011;1552;51.952;7.618;2023-12-20T00:26:25;7.90;;;4.20;;
3083;SDS011;1552;51.952;7.618;2023-12-20T00:28:50;6.43;;;3.30;;
3083;SDS011;1552;51.952;7.618;2023-12-20T00:31:16;9.53;;;3.77;;
3083;SDS011;1552;51.952;7.618;2023-12-20T00:33:43;5.47;;;4.13;;
3083;SDS011;1552;51.952;7.618;2023-12-20T00:36:12;4.70;;;3.53;;
3083;SDS011;1552;51.952;7.618;2023-12-20T00:38:38;5.30;;;3.20;;
3083;SDS011;1552;51.952;7.618;2023-12-20T00:41:05;6.70;;;3.60;;
3083;SDS011;1552;51.952;7.618;2023-12-20T00:43:31;8.83;;;3.57;;
3083;SDS011;1552;51.952;7.618;2023-12-20T00:45:57;7.07;;;3.37;;
3083;SDS011;1552;51.952;7.618;2023-12-20T00:48:25;11.33;;;3.60;;
3083;SDS011;1552;51.952;7.618;2023-12-20T00:50:52;7.50;;;3.13;;
3083;SDS011;1552;51.952;7.618;2023-12-20T00:53:19;8.03;;;3.57;;
3083;SDS011;1552;51.952;7.618;2023-12-20T00:55:46;6.90;;;2.93;;
3083;SDS011;1552;51.952;7.618;2023-12-20T00:58:12;6.10;;;3.37;;
3083;SDS011;1552;51.952;7.618;2023-12-20T01:00:40;8.20;;;3.30;;
3083;SDS011;1552;51.952;7.618;2023-12-20T01:03:07;5.47;;;3.07;;
3083;SDS011;1552;51.952;7.618;2023-12-20T01:05:32;7.00;;;3.00;;
3083;SDS011;1552;51.952;7.618;2023-12-20T01:07:58;6.43;;;2.97;;
3083;SDS011;1552;51.952;7.618;2023-12-20T01:10:26;12.40;;;3.03;;
3083;SDS011;1552;51.952;7.618;2023-12-20T01:12:54;9.80;;;4.10;;
3083;SDS011;1552;51.952;7.618;2023-12-20T01:15:20;6.00;;;2.77;;
3083;SDS011;1552;51.952;7.618;2023-12-20T01:17:47;5.70;;;2.57;;
3083;SDS011;1552;51.952;7.618;2023-12-20T01:20:14;5.43;;;2.40;;
3083;SDS011;1552;51.952;7.618;2023-12-20T01:22:40;5.07;;;2.77;;
3083;SDS011;1552;51.952;7.618;2023-12-20T01:25:08;18.40;;;3.43;;
3083;SDS011;1552;51.952;7.618;2023-12-20T01:27:35;10.03;;;3.03;;
3083;SDS011;1552;51.952;7.618;2023-12-20T01:30:02;6.77;;;2.90;;
3083;SDS011;1552;51.952;7.618;2023-12-20T01:32:28;6.13;;;3.23;;
3083;SDS011;1552;51.952;7.618;2023-12-20T01:34:54;10.13;;;3.53;;
3083;SDS011;1552;51.952;7.618;2023-12-20T01:37:21;13.17;;;3.03;;
3083;SDS011;1552;51.952;7.618;2023-12-20T01:39:49;7.17;;;3.30;;
3083;SDS011;1552;51.952;7.618;2023-12-20T01:42:15;13.60;;;3.90;;
3083;SDS011;1552;51.952;7.618;2023-12-20T01:44:42;10.40;;;3.37;;
3083;SDS011;1552;51.952;7.618;2023-12-20T01:47:09;9.00;;;4.00;;
3083;SDS011;1552;51.952;7.618;2023-12-20T01:49:35;9.33;;;4.50;;
3083;SDS011;1552;51.952;7.618;2023-12-20T01:52:01;10.00;;;4.03;;
3083;SDS011;1552;51.952;7.618;2023-12-20T01:54:28;9.70;;;4.60;;
3083;SDS011;1552;51.952;7.618;2023-12-20T01:56:55;13.60;;;4.47;;
3083;SDS011;1552;51.952;7.618;2023-12-20T01:59:21;7.93;;;4.10;;
3083;SDS011;1552;51.952;7.618;2023-12-20T02:01:49;11.93;;;5.23;;
3083;SDS011;1552;51.952;7.618;2023-12-20T02:04:15;12.77;;;4.97;;
3083;SDS011;1552;51.952;7.618;2023-12-20T02:06:42;10.63;;;5.37;;
3083;SDS011;1552;51.952;7.618;2023-12-20T02:09:08;8.20;;;4.67;;
3083;SDS011;1552;51.952;7.618;2023-12-20T02:11:35;8.53;;;4.73;;
3083;SDS011;1552;51.952;7.618;2023-12-20T02:14:02;13.63;;;5.60;;
3083;SDS011;1552;51.952;7.618;2023-12-20T02:16:28;9.97;;;4.50;;
3083;SDS011;1552;51.952;7.618;2023-12-20T02:18:55;13.07;;;5.03;;
3083;SDS011;1552;51.952;7.618;2023-12-20T02:21:25;10.07;;;4.77;;
3083;SDS011;1552;51.952;7.618;2023-12-20T02:23:51;9.17;;;4.07;;
3083;SDS011;1552;51.952;7.618;2023-12-20T02:26:17;13.93;;;5.73;;
3083;SDS011;1552;51.952;7.618;2023-12-20T02:28:43;13.37;;;3.97;;
3083;SDS011;1552;51.952;7.618;2023-12-20T02:31:10;8.70;;;4.23;;
3083;SDS011;1552;51.952;7.618;2023-12-20T02:33:36;7.20;;;3.87;;
3083;SDS011;1552;51.952;7.618;2023-12-20T02:36:04;7.30;;;4.13;;
3083;SDS011;1552;51.952;7.618;2023-12-20T02:38:33;13.43;;;4.73;;
3083;SDS011;1552;51.952;7.618;2023-12-20T02:41:00;14.23;;;4.27;;
3083;SDS011;1552;51.952;7.618;2023-12-20T02:43:26;9.30;;;4.27;;
3083;SDS011;1552;51.952;7.618;2023-12-20T02:45:52;10.90;;;4.10;;
3083;SDS011;1552;51.952;7.618;2023-12-20T02:48:18;12.80;;;3.70;;
3083;SDS011;1552;51.952;7.618;2023-12-20T02:50:45;7.93;;;3.37;;
3083;SDS011;1552;51.952;7.618;2023-12-20T02:53:11;11.03;;;3.37;;
3083;SDS011;1552;51.952;7.618;2023-12-20T02:55:39;7.27;;;3.17;;
3083;SDS011;1552;51.952;7.618;2023-12-20T02:58:05;9.57;;;3.60;;
3083;SDS011;1552;51.952;7.618;2023-12-20T03:00:31;10.87;;;3.87;;
3083;SDS011;1552;51.952;7.618;2023-12-20T03:02:58;8.70;;;4.17;;
3083;SDS011;1552;51.952;7.618;2023-12-20T03:05:24;7.63;;;3.20;;
3083;SDS011;1552;51.952;7.618;2023-12-20T03:07:51;7.53;;;3.47;;
3083;SDS011;1552;51.952;7.618;2023-12-20T03:10:18;7.00;;;2.83;;
3083;SDS011;1552;51.952;7.618;2023-12-20T03:12:46;13.27;;;3.43;;
3083;SDS011;1552;51.952;7.618;2023-12-20T03:15:12;16.57;;;3.30;;
3083;SDS011;1552;51.952;7.618;2023-12-20T03:17:38;12.20;;;3.33;;
3083;SDS011;1552;51.952;7.618;2023-12-20T03:20:05;17.07;;;3.87;;
3083;SDS011;1552;51.952;7.618;2023-12-20T03:22:32;13.20;;;3.50;;
3083;SDS011;1552;51.952;7.618;2023-12-20T03:24:58;12.33;;;3.47;;
3083;SDS011;1552;51.952;7.618;2023-12-20T03:27:24;9.70;;;3.13;;
3083;SDS011;1552;51.952;7.618;2023-12-20T03:29:52;11.57;;;3.97;;
3083;SDS011;1552;51.952;7.618;2023-12-20T03:32:18;12.47;;;3.73;;
3083;SDS011;1552;51.952;7.618;2023-12-20T03:34:44;6.23;;;3.43;;
3083;SDS011;1552;51.952;7.618;2023-12-20T03:37:11;13.33;;;3.33;;
3083;SDS011;1552;51.952;7.618;2023-12-20T03:39:37;12.03;;;4.03;;
3083;SDS011;1552;51.952;7.618;2023-12-20T03:42:04;7.87;;;3.80;;
3083;SDS011;1552;51.952;7.618;2023-12-20T03:44:30;10.90;;;4.20;;
3083;SDS011;1552;51.952;7.618;2023-12-20T03:46:57;15.63;;;4.03;;
3083;SDS011;1552;51.952;7.618;2023-12-20T03:49:24;11.17;;;4.10;;
3083;SDS011;1552;51.952;7.618;2023-12-20T03:51:50;13.93;;;4.43;;
3083;SDS011;1552;51.952;7.618;2023-12-20T03:54:16;9.30;;;3.93;;
3083;SDS011;1552;51.952;7.618;2023-12-20T03:56:43;9.93;;;3.47;;
3083;SDS011;1552;51.952;7.618;2023-12-20T03:59:09;10.23;;;4.03;;
3083;SDS011;1552;51.952;7.618;2023-12-20T04:01:35;11.40;;;4.37;;
3083;SDS011;1552;51.952;7.618;2023-12-20T04:04:03;12.77;;;3.93;;
3083;SDS011;1552;51.952;7.618;2023-12-20T04:06:29;5.83;;;2.90;;
3083;SDS011;1552;51.952;7.618;2023-12-20T04:08:56;7.53;;;3.63;;
3083;SDS011;1552;51.952;7.618;2023-12-20T04:11:22;12.00;;;3.57;;
3083;SDS011;1552;51.952;7.618;2023-12-20T04:13:47;13.23;;;3.87;;
3083;SDS011;1552;51.952;7.618;2023-12-20T04:16:13;7.77;;;3.27;;
3083;SDS011;1552;51.952;7.618;2023-12-20T04:18:40;9.17;;;3.10;;
3083;SDS011;1552;51.952;7.618;2023-12-20T04:21:07;20.13;;;4.07;;
3083;SDS011;1552;51.952;7.618;2023-12-20T04:23:34;14.23;;;4.03;;
3083;SDS011;1552;51.952;7.618;2023-12-20T04:26:00;17.13;;;3.80;;
3083;SDS011;1552;51.952;7.618;2023-12-20T04:28:26;8.47;;;3.43;;
3083;SDS011;1552;51.952;7.618;2023-12-20T04:30:55;7.37;;;3.37;;
3083;SDS011;1552;51.952;7.618;2023-12-20T04:33:21;9.40;;;3.20;;
3083;SDS011;1552;51.952;7.618;2023-12-20T04:35:47;9.90;;;3.50;;
3083;SDS011;1552;51.952;7.618;2023-12-20T04:38:15;20.47;;;4.40;;
3083;SDS011;1552;51.952;7.618;2023-12-20T04:40:41;13.70;;;3.80;;
3083;SDS011;1552;51.952;7.618;2023-12-20T04:43:07;11.57;;;3.93;;
3083;SDS011;1552;51.952;7.618;2023-12-20T04:45:34;26.53;;;4.87;;
3083;SDS011;1552;51.952;7.618;2023-12-20T04:48:01;11.27;;;4.00;;
3083;SDS011;1552;51.952;7.618;2023-12-20T04:50:29;16.00;;;4.67;;
3083;SDS011;1552;51.952;7.618;2023-12-20T04:52:55;8.10;;;4.33;;
3083;SDS011;1552;51.952;7.618;2023-12-20T04:55:23;11.10;;;4.10;;
3083;SDS011;1552;51.952;7.618;2023-12-20T04:57:49;14.40;;;5.23;;
3083;SDS011;1552;51.952;7.618;2023-12-20T05:00:15;10.33;;;5.27;;
3083;SDS011;1552;51.952;7.618;2023-12-20T05:02:45;18.73;;;5.37;;
3083;SDS011;1552;51.952;7.618;2023-12-20T05:05:11;12.33;;;4.60;;
3083;SDS011;1552;51.952;7.618;2023-12-20T05:07:37;10.47;;;4.23;;
3083;SDS011;1552;51.952;7.618;2023-12-20T05:10:04;15.90;;;5.33;;
3083;SDS011;1552;51.952;7.618;2023-12-20T05:12:32;15.50;;;4.87;;
3083;SDS011;1552;51.952;7.618;2023-12-20T05:14:58;12.23;;;4.73;;
3083;SDS011;1552;51.952;7.618;2023-12-20T05:17:25;20.87;;;5.07;;
3083;SDS011;1552;51.952;7.618;2023-12-20T05:19:51;14.47;;;4.93;;
3083;SDS011;1552;51.952;7.618;2023-12-20T05:22:17;14.50;;;5.93;;
3083;SDS011;1552;51.952;7.618;2023-12-20T05:24:44;11.10;;;4.90;;
3083;SDS011;1552;51.952;7.618;2023-12-20T05:27:11;9.60;;;4.67;;
3083;SDS011;1552;51.952;7.618;2023-12-20T05:29:39;28.00;;;5.27;;
3083;SDS011;1552;51.952;7.618;2023-12-20T05:32:06;14.03;;;4.57;;
3083;SDS011;1552;51.952;7.618;2023-12-20T05:34:32;13.97;;;5.57;;
3083;SDS011;1552;51.952;7.618;2023-12-20T05:36:58;19.83;;;5.13;;
3083;SDS011;1552;51.952;7.618;2023-12-20T05:39:26;12.50;;;4.80;;
3083;SDS011;1552;51.952;7.618;2023-12-20T05:41:52;17.27;;;5.60;;
3083;SDS011;1552;51.952;7.618;2023-12-20T05:44:18;13.87;;;4.90;;
3083;SDS011;1552;51.952;7.618;2023-12-20T05:46:46;10.60;;;4.73;;
3083;SDS011;1552;51.952;7.618;2023-12-20T05:49:12;11.63;;;5.30;;
3083;SDS011;1552;51.952;7.618;2023-12-20T05:51:39;16.23;;;5.13;;
3083;SDS011;1552;51.952;7.618;2023-12-20T05:54:05;14.10;;;5.63;;
3083;SDS011;1552;51.952;7.618;2023-12-20T05:56:31;15.07;;;5.50;;
3083;SDS011;1552;51.952;7.618;2023-12-20T05:58:57;12.60;;;4.90;;
3083;SDS011;1552;51.952;7.618;2023-12-20T06:01:24;8.50;;;4.50;;
3083;SDS011;1552;51.952;7.618;2023-12-20T06:03:52;15.37;;;5.80;;
3083;SDS011;1552;51.952;7.618;2023-12-20T06:06:18;14.43;;;4.63;;
3083;SDS011;1552;51.952;7.618;2023-12-20T06:08:44;20.17;;;5.53;;
3083;SDS011;1552;51.952;7.618;2023-12-20T06:11:11;18.00;;;5.40;;
3083;SDS011;1552;51.952;7.618;2023-12-20T06:13:37;9.60;;;4.07;;
3083;SDS011;1552;51.952;7.618;2023-12-20T06:16:05;12.90;;;4.30;;
3083;SDS011;1552;51.952;7.618;2023-12-20T06:18:31;10.73;;;3.63;;
3083;SDS011;1552;51.952;7.618;2023-12-20T06:20:59;14.07;;;3.43;;
3083;SDS011;1552;51.952;7.618;2023-12-20T06:23:25;18.30;;;5.00;;
3083;SDS011;1552;51.952;7.618;2023-12-20T06:25:52;12.20;;;4.47;;
3083;SDS011;1552;51.952;7.618;2023-12-20T06:28:19;19.60;;;4.77;;
3083;SDS011;1552;51.952;7.618;2023-12-20T06:30:45;17.97;;;4.73;;
3083;SDS011;1552;51.952;7.618;2023-12-20T06:33:12;11.77;;;4.33;;
3083;SDS011;1552;51.952;7.618;2023-12-20T06:35:38;11.23;;;3.70;;
3083;SDS011;1552;51.952;7.618;2023-12-20T06:38:06;11.57;;;4.27;;
3083;SDS011;1552;51.952;7.618;2023-12-20T06:40:33;16.60;;;4.13;;
3083;SDS011;1552;51.952;7.618;2023-12-20T06:43:00;10.60;;;4.00;;
3083;SDS011;1552;51.952;7.618;2023-12-20T06:45:26;16.67;;;4.67;;
3083;SDS011;1552;51.952;7.618;2023-12-20T06:47:52;13.30;;;3.73;;
3083;SDS011;1552;51.952;7.618;2023-12-20T06:50:19;11.20;;;4.20;;
3083;SDS011;1552;51.952;7.618;2023-12-20T06:52:46;10.43;;;3.97;;
3083;SDS011;1552;51.952;7.618;2023-12-20T06:55:13;16.90;;;4.20;;
3083;SDS011;1552;51.952;7.618;2023-12-20T06:57:39;10.40;;;3.63;;
3083;SDS011;1552;51.952;7.618;2023-12-20T07:00:06;10.43;;;3.67;;
3083;SDS011;1552;51.952;7.618;2023-12-20T07:02:33;11.80;;;3.77;;
3083;SDS011;1552;51.952;7.618;2023-12-20T07:05:00;12.77;;;3.67;;
3083;SDS011;1552;51.952;7.618;2023-12-20T07:07:26;13.80;;;3.63;;
3083;SDS011;1552;51.952;7.618;2023-12-20T07:09:52;8.03;;;3.63;;
3083;SDS011;1552;51.952;7.618;2023-12-20T07:12:20;14.00;;;4.37;;
3083;SDS011;1552;51.952;7.618;2023-12-20T07:14:46;12.03;;;4.00;;
3083;SDS011;1552;51.952;7.618;2023-12-20T07:17:12;12.10;;;3.70;;
3083;SDS011;1552;51.952;7.618;2023-12-20T07:19:40;15.57;;;4.40;;
3083;SDS011;1552;51.952;7.618;2023-12-20T07:22:06;9.33;;;3.90;;
3083;SDS011;1552;51.952;7.618;2023-12-20T07:24:33;16.23;;;4.47;;
3083;SDS011;1552;51.952;7.618;2023-12-20T07:26:59;17.67;;;4.20;;
3083;SDS011;1552;51.952;7.618;2023-12-20T07:29:27;10.60;;;4.20;;
3083;SDS011;1552;51.952;7.618;2023-12-20T07:31:53;19.07;;;4.57;;
3083;SDS011;1552;51.952;7.618;2023-12-20T07:34:20;20.13;;;4.53;;
3083;SDS011;1552;51.952;7.618;2023-12-20T07:36:46;13.63;;;4.17;;
3083;SDS011;1552;51.952;7.618;2023-12-20T07:39:12;12.90;;;4.63;;
3083;SDS011;1552;51.952;7.618;2023-12-20T07:41:39;8.17;;;3.17;;
3083;SDS011;1552;51.952;7.618;2023-12-20T07:44:06;19.07;;;4.13;;
3083;SDS011;1552;51.952;7.618;2023-12-20T07:46:34;16.57;;;4.23;;
3083;SDS011;1552;51.952;7.618;2023-12-20T07:49:00;13.23;;;4.53;;
3083;SDS011;1552;51.952;7.618;2023-12-20T07:51:26;17.93;;;4.73;;
3083;SDS011;1552;51.952;7.618;2023-12-20T07:53:53;9.20;;;3.77;;
3083;SDS011;1552;51.952;7.618;2023-12-20T07:56:19;14.97;;;4.80;;
3083;SDS011;1552;51.952;7.618;2023-12-20T07:58:45;13.07;;;4.80;;
3083;SDS011;1552;51.952;7.618;2023-12-20T08:01:13;10.67;;;4.20;;
3083;SDS011;1552;51.952;7.618;2023-12-20T08:03:40;10.23;;;4.23;;
3083;SDS011;1552;51.952;7.618;2023-12-20T08:06:07;15.47;;;4.53;;
3083;SDS011;1552;51.952;7.618;2023-12-20T08:08:33;16.73;;;5.00;;
3083;SDS011;1552;51.952;7.618;2023-12-20T08:10:59;12.20;;;4.67;;
3083;SDS011;1552;51.952;7.618;2023-12-20T08:13:26;14.37;;;4.70;;
3083;SDS011;1552;51.952;7.618;2023-12-20T08:15:52;13.67;;;5.30;;
3083;SDS011;1552;51.952;7.618;2023-12-20T08:18:18;15.53;;;4.77;;
3083;SDS011;1552;51.952;7.618;2023-12-20T08:20:46;10.63;;;4.60;;
3083;SDS011;1552;51.952;7.618;2023-12-20T08:23:13;23.63;;;5.70;;
3083;SDS011;1552;51.952;7.618;2023-12-20T08:25:39;12.00;;;4.57;;
3083;SDS011;1552;51.952;7.618;2023-12-20T08:28:06;9.03;;;5.00;;
3083;SDS011;1552;51.952;7.618;2023-12-20T08:30:32;13.43;;;4.23;;
3083;SDS011;1552;51.952;7.618;2023-12-20T08:32:59;13.97;;;5.03;;
3083;SDS011;1552;51.952;7.618;2023-12-20T08:35:25;7.97;;;4.30;;
3083;SDS011;1552;51.952;7.618;2023-12-20T08:37:53;14.40;;;4.87;;
3083;SDS011;1552;51.952;7.618;2023-12-20T08:40:19;9.70;;;4.73;;
3083;SDS011;1552;51.952;7.618;2023-12-20T08:42:45;12.47;;;5.47;;
3083;SDS011;1552;51.952;7.618;2023-12-20T08:45:12;10.33;;;4.43;;
3083;SDS011;1552;51.952;7.618;2023-12-20T08:47:38;17.10;;;4.27;;
3083;SDS011;1552;51.952;7.618;2023-12-20T08:50:06;11.83;;;3.93;;
3083;SDS011;1552;51.952;7.618;2023-12-20T08:52:33;9.87;;;4.40;;
3083;SDS011;1552;51.952;7.618;2023-12-20T08:55:00;14.43;;;4.87;;
3083;SDS011;1552;51.952;7.618;2023-12-20T08:57:26;14.33;;;5.00;;
3083;SDS011;1552;51.952;7.618;2023-12-20T08:59:53;13.30;;;5.03;;
3083;SDS011;1552;51.952;7.618;2023-12-20T09:02:19;18.43;;;5.23;;
3083;SDS011;1552;51.952;7.618;2023-12-20T09:04:45;15.17;;;4.50;;
3083;SDS011;1552;51.952;7.618;2023-12-20T09:07:20;15.67;;;4.20;;
3083;SDS011;1552;51.952;7.618;2023-12-20T09:09:47;6.53;;;3.77;;
3083;SDS011;1552;51.952;7.618;2023-12-20T09:12:14;14.13;;;5.40;;
3083;SDS011;1552;51.952;7.618;2023-12-20T09:14:40;22.13;;;5.23;;
3083;SDS011;1552;51.952;7.618;2023-12-20T09:17:07;13.17;;;4.33;;
3083;SDS011;1552;51.952;7.618;2023-12-20T09:19:33;12.57;;;4.10;;
3083;SDS011;1552;51.952;7.618;2023-12-20T09:22:00;18.10;;;5.40;;
3083;SDS011;1552;51.952;7.618;2023-12-20T09:24:27;12.83;;;4.80;;
3083;SDS011;1552;51.952;7.618;2023-12-20T09:26:53;10.93;;;4.03;;
3083;SDS011;1552;51.952;7.618;2023-12-20T09:29:21;11.27;;;4.60;;
3083;SDS011;1552;51.952;7.618;2023-12-20T09:31:47;21.23;;;4.87;;
3083;SDS011;1552;51.952;7.618;2023-12-20T09:34:15;7.73;;;3.97;;
3083;SDS011;1552;51.952;7.618;2023-12-20T09:36:42;18.87;;;4.70;;
3083;SDS011;1552;51.952;7.618;2023-12-20T09:39:11;16.43;;;4.63;;
3083;SDS011;1552;51.952;7.618;2023-12-20T09:41:37;17.50;;;4.87;;
3083;SDS011;1552;51.952;7.618;2023-12-20T09:44:06;15.23;;;4.93;;
3083;SDS011;1552;51.952;7.618;2023-12-20T09:46:35;13.17;;;3.87;;
3083;SDS011;1552;51.952;7.618;2023-12-20T09:49:04;13.23;;;4.57;;
3083;SDS011;1552;51.952;7.618;2023-12-20T09:51:31;16.47;;;4.90;;
3083;SDS011;1552;51.952;7.618;2023-12-20T09:53:58;12.30;;;4.87;;
3083;SDS011;1552;51.952;7.618;2023-12-20T09:56:25;18.70;;;5.00;;
3083;SDS011;1552;51.952;7.618;2023-12-20T09:58:51;9.37;;;4.10;;
3083;SDS011;1552;51.952;7.618;2023-12-20T10:01:19;16.77;;;5.53;;
3083;SDS011;1552;51.952;7.618;2023-12-20T10:03:46;16.40;;;4.67;;
3083;SDS011;1552;51.952;7.618;2023-12-20T10:06:13;17.57;;;4.60;;
3083;SDS011;1552;51.952;7.618;2023-12-20T10:08:39;13.10;;;4.53;;
3083;SDS011;1552;51.952;7.618;2023-12-20T10:11:05;12.47;;;4.20;;
3083;SDS011;1552;51.952;7.618;2023-12-20T10:13:32;19.23;;;5.00;;
3083;SDS011;1552;51.952;7.618;2023-12-20T10:15:58;12.90;;;4.07;;
3083;SDS011;1552;51.952;7.618;2023-12-20T10:18:25;13.87;;;3.90;;
3083;SDS011;1552;51.952;7.618;2023-12-20T10:20:53;12.50;;;4.73;;
3083;SDS011;1552;51.952;7.618;2023-12-20T10:23:19;10.93;;;4.07;;
3083;SDS011;1552;51.952;7.618;2023-12-20T10:25:55;9.07;;;3.23;;
3083;SDS011;1552;51.952;7.618;2023-12-20T10:28:21;8.67;;;3.33;;
3083;SDS011;1552;51.952;7.618;2023-12-20T10:30:52;11.80;;;3.63;;
3083;SDS011;1552;51.952;7.618;2023-12-20T10:33:23;12.90;;;4.03;;
3083;SDS011;1552;51.952;7.618;2023-12-20T10:35:50;11.37;;;3.77;;
3083;SDS011;1552;51.952;7.618;2023-12-20T10:38:17;14.63;;;3.80;;
3083;SDS011;1552;51.952;7.618;2023-12-20T10:40:45;12.50;;;4.40;;
3083;SDS011;1552;51.952;7.618;2023-12-20T10:43:11;9.20;;;3.63;;
3083;SDS011;1552;51.952;7.618;2023-12-20T10:45:38;12.27;;;3.83;;
3083;SDS011;1552;51.952;7.618;2023-12-20T10:48:04;6.70;;;3.67;;
3083;SDS011;1552;51.952;7.618;2023-12-20T10:50:31;11.33;;;3.67;;
3083;SDS011;1552;51.952;7.618;2023-12-20T10:52:58;16.87;;;3.90;;
3083;SDS011;1552;51.952;7.618;2023-12-20T10:55:26;16.27;;;3.80;;
3083;SDS011;1552;51.952;7.618;2023-12-20T10:57:52;13.63;;;3.60;;
3083;SDS011;1552;51.952;7.618;2023-12-20T11:00:20;9.37;;;3.63;;
3083;SDS011;1552;51.952;7.618;2023-12-20T11:02:48;11.77;;;3.87;;
3083;SDS011;1552;51.952;7.618;2023-12-20T11:05:21;9.07;;;3.47;;
3083;SDS011;1552;51.952;7.618;2023-12-20T11:07:49;8.00;;;3.10;;
3083;SDS011;1552;51.952;7.618;2023-12-20T11:10:19;10.37;;;3.17;;
3083;SDS011;1552;51.952;7.618;2023-12-20T11:12:48;10.77;;;3.30;;
3083;SDS011;1552;51.952;7.618;2023-12-20T11:15:17;6.00;;;2.90;;
3083;SDS011;1552;51.952;7.618;2023-12-20T11:17:44;8.33;;;3.10;;
3083;SDS011;1552;51.952;7.618;2023-12-20T11:20:11;10.43;;;3.37;;
3083;SDS011;1552;51.952;7.618;2023-12-20T11:22:37;8.63;;;3.33;;
3083;SDS011;1552;51.952;7.618;2023-12-20T11:25:07;8.80;;;3.00;;
3083;SDS011;1552;51.952;7.618;2023-12-20T11:27:34;7.87;;;3.57;;
3083;SDS011;1552;51.952;7.618;2023-12-20T11:30:03;8.83;;;3.40;;
3083;SDS011;1552;51.952;7.618;2023-12-20T11:32:31;13.53;;;3.60;;
3083;SDS011;1552;51.952;7.618;2023-12-20T11:34:57;14.17;;;4.00;;
3083;SDS011;1552;51.952;7.618;2023-12-20T11:37:28;12.73;;;3.53;;
3083;SDS011;1552;51.952;7.618;2023-12-20T11:39:55;9.77;;;3.13;;
3083;SDS011;1552;51.952;7.618;2023-12-20T11:42:21;10.93;;;3.17;;
3083;SDS011;1552;51.952;7.618;2023-12-20T11:44:47;20.10;;;3.93;;
3083;SDS011;1552;51.952;7.618;2023-12-20T11:47:15;9.23;;;3.10;;
3083;SDS011;1552;51.952;7.618;2023-12-20T11:49:44;13.93;;;3.67;;
3083;SDS011;1552;51.952;7.618;2023-12-20T11:52:11;8.60;;;3.43;;
3083;SDS011;1552;51.952;7.618;2023-12-20T11:54:37;14.60;;;3.63;;
3083;SDS011;1552;51.952;7.618;2023-12-20T11:57:04;8.47;;;3.37;;
3083;SDS011;1552;51.952;7.618;2023-12-20T11:59:30;20.53;;;3.77;;
3083;SDS011;1552;51.952;7.618;2023-12-20T12:01:58;14.77;;;3.90;;
3083;SDS011;1552;51.952;7.618;2023-12-20T12:04:27;13.00;;;4.00;;
3083;SDS011;1552;51.952;7.618;2023-12-20T12:06:54;8.13;;;3.23;;
3083;SDS011;1552;51.952;7.618;2023-12-20T12:09:20;9.90;;;3.47;;
3083;SDS011;1552;51.952;7.618;2023-12-20T12:11:46;11.67;;;3.47;;
3083;SDS011;1552;51.952;7.618;2023-12-20T12:14:13;17.67;;;4.23;;
3083;SDS011;1552;51.952;7.618;2023-12-20T12:16:41;10.83;;;3.83;;
3083;SDS011;1552;51.952;7.618;2023-12-20T12:19:07;8.53;;;4.07;;
3083;SDS011;1552;51.952;7.618;2023-12-20T12:21:35;17.17;;;3.23;;
3083;SDS011;1552;51.952;7.618;2023-12-20T12:24:08;11.43;;;3.40;;
3083;SDS011;1552;51.952;7.618;2023-12-20T12:26:34;13.73;;;3.90;;
3083;SDS011;1552;51.952;7.618;2023-12-20T12:29:00;14.73;;;3.60;;
3083;SDS011;1552;51.952;7.618;2023-12-20T12:31:27;15.80;;;3.60;;
3083;SDS011;1552;51.952;7.618;2023-12-20T12:33:54;9.73;;;3.17;;
3083;SDS011;1552;51.952;7.618;2023-12-20T12:36:20;10.73;;;3.23;;
3083;SDS011;1552;51.952;7.618;2023-12-20T12:38:48;13.57;;;3.77;;
3083;SDS011;1552;51.952;7.618;2023-12-20T12:41:14;16.03;;;3.73;;
3083;SDS011;1552;51.952;7.618;2023-12-20T12:43:41;11.80;;;4.07;;
3083;SDS011;1552;51.952;7.618;2023-12-20T12:46:07;22.17;;;3.83;;
3083;SDS011;1552;51.952;7.618;2023-12-20T12:48:34;13.23;;;3.73;;
3083;SDS011;1552;51.952;7.618;2023-12-20T12:51:00;8.03;;;2.90;;
3083;SDS011;1552;51.952;7.618;2023-12-20T12:53:26;11.00;;;3.73;;
3083;SDS011;1552;51.952;7.618;2023-12-20T12:55:54;6.20;;;3.47;;
3083;SDS011;1552;51.952;7.618;2023-12-20T12:58:21;10.97;;;3.70;;
3083;SDS011;1552;51.952;7.618;2023-12-20T13:00:47;12.83;;;3.60;;
3083;SDS011;1552;51.952;7.618;2023-12-20T13:03:13;19.20;;;4.27;;
3083;SDS011;1552;51.952;7.618;2023-12-20T13:05:40;15.33;;;3.77;;
3083;SDS011;1552;51.952;7.618;2023-12-20T13:08:06;12.83;;;3.73;;
3083;SDS011;1552;51.952;7.618;2023-12-20T13:10:32;10.00;;;3.47;;
3083;SDS011;1552;51.952;7.618;2023-12-20T13:13:00;10.13;;;3.20;;
3083;SDS011;1552;51.952;7.618;2023-12-20T13:15:26;5.50;;;3.10;;
3083;SDS011;1552;51.952;7.618;2023-12-20T13:17:53;13.13;;;3.67;;
3083;SDS011;1552;51.952;7.618;2023-12-20T13:20:19;8.27;;;3.30;;
3083;SDS011;1552;51.952;7.618;2023-12-20T13:22:45;12.80;;;3.23;;
3083;SDS011;1552;51.952;7.618;2023-12-20T13:25:12;8.63;;;3.50;;
3083;SDS011;1552;51.952;7.618;2023-12-20T13:27:38;7.27;;;3.00;;
3083;SDS011;1552;51.952;7.618;2023-12-20T13:30:06;10.47;;;3.43;;
3083;SDS011;1552;51.952;7.618;2023-12-20T13:32:32;12.03;;;3.87;;
3083;SDS011;1552;51.952;7.618;2023-12-20T13:34:59;7.80;;;3.17;;
3083;SDS011;1552;51.952;7.618;2023-12-20T13:37:25;8.70;;;3.20;;
3083;SDS011;1552;51.952;7.618;2023-12-20T13:39:51;15.77;;;3.50;;
3083;SDS011;1552;51.952;7.618;2023-12-20T13:42:17;11.03;;;3.47;;
3083;SDS011;1552;51.952;7.618;2023-12-20T13:44:45;9.73;;;3.50;;
3083;SDS011;1552;51.952;7.618;2023-12-20T13:47:13;17.07;;;4.20;;
3083;SDS011;1552;51.952;7.618;2023-12-20T13:49:39;7.83;;;3.67;;
3083;SDS011;1552;51.952;7.618;2023-12-20T13:52:05;10.87;;;3.53;;
3083;SDS011;1552;51.952;7.618;2023-12-20T13:54:32;10.20;;;3.17;;
3083;SDS011;1552;51.952;7.618;2023-12-20T13:56:58;9.83;;;3.67;;
3083;SDS011;1552;51.952;7.618;2023-12-20T13:59:25;4.97;;;2.67;;
3083;SDS011;1552;51.952;7.618;2023-12-20T14:01:51;7.40;;;3.13;;
3083;SDS011;1552;51.952;7.618;2023-12-20T14:04:19;7.60;;;2.77;;
3083;SDS011;1552;51.952;7.618;2023-12-20T14:06:45;16.07;;;3.70;;
3083;SDS011;1552;51.952;7.618;2023-12-20T14:09:11;9.73;;;3.70;;
3083;SDS011;1552;51.952;7.618;2023-12-20T14:11:38;10.47;;;3.83;;
3083;SDS011;1552;51.952;7.618;2023-12-20T14:14:06;12.93;;;3.37;;
3083;SDS011;1552;51.952;7.618;2023-12-20T14:16:32;8.07;;;3.10;;
3083;SDS011;1552;51.952;7.618;2023-12-20T14:18:59;9.07;;;2.77;;
3083;SDS011;1552;51.952;7.618;2023-12-20T14:21:26;14.00;;;3.43;;
3083;SDS011;1552;51.952;7.618;2023-12-20T14:23:53;15.10;;;3.87;;
3083;SDS011;1552;51.952;7.618;2023-12-20T14:26:19;9.10;;;3.20;;
3083;SDS011;1552;51.952;7.618;2023-12-20T14:28:45;10.23;;;3.17;;
3083;SDS011;1552;51.952;7.618;2023-12-20T14:31:12;7.90;;;3.13;;
3083;SDS011;1552;51.952;7.618;2023-12-20T14:33:38;14.20;;;3.80;;
3083;SDS011;1552;51.952;7.618;2023-12-20T14:36:06;7.13;;;3.57;;
3083;SDS011;1552;51.952;7.618;2023-12-20T14:38:34;10.13;;;3.63;;
3083;SDS011;1552;51.952;7.618;2023-12-20T14:41:01;11.33;;;3.20;;
3083;SDS011;1552;51.952;7.618;2023-12-20T14:43:28;16.40;;;3.67;;
3083;SDS011;1552;51.952;7.618;2023-12-20T14:45:54;7.97;;;3.63;;
3083;SDS011;1552;51.952;7.618;2023-12-20T14:48:20;10.13;;;3.93;;
3083;SDS011;1552;51.952;7.618;2023-12-20T14:50:47;10.30;;;3.87;;
3083;SDS011;1552;51.952;7.618;2023-12-20T14:53:14;9.80;;;3.43;;
3083;SDS011;1552;51.952;7.618;2023-12-20T14:55:42;8.93;;;3.80;;
3083;SDS011;1552;51.952;7.618;2023-12-20T14:58:09;15.17;;;3.43;;
3083;SDS011;1552;51.952;7.618;2023-12-20T15:00:35;9.67;;;3.30;;
3083;SDS011;1552;51.952;7.618;2023-12-20T15:03:02;8.97;;;3.77;;